CSL Niagara — VCGJ — position and weather

sailwx.info

Track history (hours):
 
Tides and Currents Weather Stations Pressure Air Temp Water Temp Dewpoint Dewpoint Depression Visibility Wind Speed Wind Dir Waves Ship Positions

CSL Niagara

ex J. W. McGiffin

Last reported at 2018-Jul-23 06:00 UTC. Time now 2018-Jul-23 07:39 UTC.
Position N 43°18' W 078°12'.

Length 225 m; draft 8.1 m.

Type: Cargo ship. MMSI: 316029000.

Wind from 130 at 13 knots

Barometer 303.9 mb
Air temperature -17.7 ° C
Visibility: greater than 27.0 NM

Date/timePositionNaut miles runAvg speedWind from/ knotsBaromVisibWave heightAir tempDewpointWater temp
2018-Jul-23 06:00N 43°18' W 078°12'192 9.2 130 / 13303.927.0 -17.7
2018-Jul-22 09:09N 45°06' W 074°29'1 8.1
2018-Jul-22 09:00N 45°07' W 074°28'5 9.7
2018-Jul-22 08:30N 45°09' W 074°23'510.4
2018-Jul-22 08:00N 45°13' W 074°17'11 7.5
2018-Jul-22 06:34N 45°13' W 074°02'0 8.8
2018-Jul-22 06:30N 45°14' W 074°01'5 7.9
2018-Jul-22 05:53N 45°17' W 073°56'1 3.4
2018-Jul-22 05:30N 45°18' W 073°56'1 1.1
2018-Jul-22 05:00N 45°19' W 073°55'0 0.6
2018-Jul-22 04:30N 45°19' W 073°55'0 0.8
2018-Jul-22 04:00N 45°19' W 073°55'0 0.0
2018-Jul-22 03:30N 45°19' W 073°55'0 0.0
2018-Jul-22 03:00N 45°19' W 073°55'0 0.8
2018-Jul-22 02:30N 45°20' W 073°55'4 8.7
2018-Jul-22 02:00N 45°22' W 073°50'5 9.3
2018-Jul-22 01:30N 45°24' W 073°44'3 5.7
2018-Jul-22 01:00N 45°25' W 073°40'3 5.3
2018-Jul-22 00:30N 45°24' W 073°36'1 2.8
2018-Jul-22 00:01N 45°24' W 073°34'0 0.7
2018-Jul-21 23:30N 45°24' W 073°33'2 4.5
2018-Jul-21 23:00N 45°25' W 073°30'3 5.8
2018-Jul-21 22:29N 45°28' W 073°30'1 3.0
2018-Jul-21 22:00N 45°30' W 073°31'0 0.7
2018-Jul-21 21:30N 45°30' W 073°31'8 1.3
2018-Jul-21 15:01N 45°38' W 073°29'0 7.5
2018-Jul-21 14:58N 45°39' W 073°29'4 8.9
2018-Jul-21 14:28N 45°43' W 073°26'4 9.3
2018-Jul-21 14:00N 45°46' W 073°23'5 9.5
2018-Jul-21 13:30N 45°50' W 073°18'5 9.5
2018-Jul-21 13:00N 45°54' W 073°14'5 9.0
2018-Jul-21 12:30N 45°58' W 073°12'4 8.9
2018-Jul-21 12:00N 46°02' W 073°10'4 8.7
2018-Jul-21 11:30N 46°04' W 073°04'89 9.6
2018-Jul-21 02:12N 46°49' W 071°12'1 3.2
2018-Jul-21 01:45N 46°50' W 071°12'0 0.0
2018-Jul-21 01:21N 46°50' W 071°12'0 0.0
2018-Jul-21 00:45N 46°50' W 071°12'0 0.0
2018-Jul-20 23:54N 46°50' W 071°12'0 0.0
2018-Jul-20 23:21N 46°50' W 071°12'0 0.0
2018-Jul-20 22:24N 46°50' W 071°12'0 0.0
2018-Jul-20 20:36N 46°50' W 071°12'0 0.0
2018-Jul-20 19:24N 46°50' W 071°12'0 0.0
2018-Jul-20 18:18N 46°50' W 071°12'0 0.0
2018-Jul-20 17:42N 46°50' W 071°12'0 0.0
2018-Jul-20 17:21N 46°50' W 071°12'0 0.0
2018-Jul-20 16:12N 46°50' W 071°12'0 0.0
2018-Jul-20 15:57N 46°50' W 071°12'0 0.0
2018-Jul-20 15:30N 46°50' W 071°12'0 0.0
2018-Jul-20 14:45N 46°50' W 071°12'0 0.0
2018-Jul-20 14:18N 46°50' W 071°12'0 0.0
2018-Jul-20 14:00N 46°50' W 071°12'0 0.0
2018-Jul-20 13:29N 46°50' W 071°12'0 0.0
2018-Jul-20 12:57N 46°50' W 071°12'0 0.0
2018-Jul-20 12:30N 46°50' W 071°12'0 0.0
2018-Jul-20 11:59N 46°50' W 071°12'0 0.0
2018-Jul-20 11:30N 46°50' W 071°12'2 2.8
2018-Jul-20 10:51N 46°48' W 071°12'8511.6
2018-Jul-20 03:29N 46°06' W 072°59'612.4
2018-Jul-20 03:00N 46°03' W 073°07'611.0
2018-Jul-20 02:30N 45°59' W 073°11'612.2
2018-Jul-20 02:00N 45°53' W 073°15'612.3
2018-Jul-20 01:30N 45°48' W 073°20'612.7
2018-Jul-20 01:00N 45°43' W 073°26'712.0
2018-Jul-20 00:27N 45°37' W 073°30'7 9.5
2018-Jul-19 23:46N 45°31' W 073°31'1 3.4
2018-Jul-19 23:30N 45°30' W 073°31'0 0.4
2018-Jul-19 23:00N 45°30' W 073°31'0 0.9
2018-Jul-19 22:30N 45°29' W 073°31'2 3.9
2018-Jul-19 22:01N 45°27' W 073°30'3 5.4
2018-Jul-19 21:31N 45°25' W 073°31'2 3.8
2018-Jul-19 21:01N 45°24' W 073°34'0 0.3
2018-Jul-19 20:31N 45°24' W 073°34'1 1.8
2018-Jul-19 20:01N 45°24' W 073°35'2 4.3
2018-Jul-19 19:30N 45°24' W 073°38'3 5.4
2018-Jul-19 19:01N 45°25' W 073°42'4 8.1
2018-Jul-19 18:31N 45°24' W 073°48'611.2
2018-Jul-19 18:00N 45°20' W 073°54'1 2.9
2018-Jul-19 17:31N 45°19' W 073°55'0 0.7
2018-Jul-19 17:01N 45°19' W 073°55'0 1.0
2018-Jul-19 16:31N 45°18' W 073°56'0 0.5
2018-Jul-19 16:00N 45°18' W 073°56'2 4.4
2018-Jul-19 15:30N 45°16' W 073°57'4 7.8
2018-Jul-19 15:00N 45°14' W 074°01'4 5.2
2018-Jul-19 14:16N 45°14' W 074°07'7 7.0
2018-Jul-19 13:12N 45°13' W 074°17'6 7.4
2018-Jul-19 12:22N 45°08' W 074°24'3 8.9
2018-Jul-19 11:59N 45°07' W 074°28'4 8.7
2018-Jul-19 11:31N 45°04' W 074°32'5 9.4
2018-Jul-19 11:00N 45°02' W 074°38'147 8.7
2018-Jul-18 18:00N 43°24' W 077°12'5313.2 180 / 5507.127.0 -17.7
2018-Jul-18 14:00N 43°30' W 078°24'   050 / 121019.0 -5.5
2018-Jul-16 07:31N 45°23' W 083°10'2111.9
2018-Jul-16 05:46N 45°39' W 083°30'1211.8
2018-Jul-16 04:45N 45°48' W 083°42'100 6.6
2018-Jul-15 13:35N 46°57' W 085°26'111.8
2018-Jul-15 13:31N 46°58' W 085°27'711.9
2018-Jul-15 12:58N 47°00' W 085°36'511.9
2018-Jul-15 12:30N 47°03' W 085°43'611.9
2018-Jul-15 11:58N 47°05' W 085°52'20111.4
2018-Jul-14 18:23N 47°14' W 090°47'411.9
2018-Jul-14 18:00N 47°12' W 090°53'611.8
2018-Jul-14 17:30N 47°09' W 091°01'2812.0
2018-Jul-14 15:11N 46°57' W 091°37'212.0
2018-Jul-14 15:00N 46°56' W 091°40'1212.1
2018-Jul-14 14:00N 46°50' W 091°56'612.0
2018-Jul-14 13:30N 46°47' W 092°04'2 4.6
2018-Jul-14 13:00N 46°45' W 092°05'2 2.5
2018-Jul-14 12:19N 46°45' W 092°08'0 0.2
2018-Jul-14 11:52N 46°45' W 092°08'0 0.0
2018-Jul-14 11:22N 46°45' W 092°08'0 0.0
2018-Jul-14 10:52N 46°45' W 092°08'0 0.0
2018-Jul-14 10:22N 46°45' W 092°08'0 0.0
2018-Jul-14 09:52N 46°45' W 092°08'0 0.0
2018-Jul-14 09:22N 46°45' W 092°08'0 0.0
2018-Jul-14 08:55N 46°45' W 092°08'0 0.0
2018-Jul-14 08:25N 46°45' W 092°08'0 0.0
2018-Jul-14 07:55N 46°45' W 092°08'0 0.0
2018-Jul-14 06:55N 46°45' W 092°08'0 0.0
2018-Jul-14 06:28N 46°45' W 092°08'0 0.0
2018-Jul-14 05:58N 46°45' W 092°08'0 0.0
2018-Jul-14 05:30N 46°45' W 092°08'0 0.0
2018-Jul-14 05:00N 46°45' W 092°08'0 0.0
2018-Jul-14 04:31N 46°45' W 092°08'0 0.0
2018-Jul-14 04:00N 46°45' W 092°08'0 0.0
2018-Jul-14 03:30N 46°45' W 092°08'0 0.0
2018-Jul-14 03:00N 46°45' W 092°08'0 0.0
2018-Jul-14 02:30N 46°45' W 092°08'0 0.0
2018-Jul-14 02:00N 46°45' W 092°08'0 0.0
2018-Jul-14 01:30N 46°45' W 092°08'0 0.0
2018-Jul-14 01:00N 46°45' W 092°08'0 0.0
2018-Jul-14 00:29N 46°45' W 092°08'0 0.0
2018-Jul-13 23:58N 46°45' W 092°08'0 0.0
2018-Jul-13 23:31N 46°45' W 092°08'0 0.0
2018-Jul-13 23:00N 46°45' W 092°08'0 0.0
2018-Jul-13 22:30N 46°45' W 092°08'0 0.0
2018-Jul-13 22:00N 46°45' W 092°08'1 1.1
2018-Jul-13 21:30N 46°45' W 092°07'2 3.5
2018-Jul-13 21:01N 46°46' W 092°06'4 7.9
2018-Jul-13 20:31N 46°48' W 092°01'612.2
2018-Jul-13 20:00N 46°50' W 091°53'612.2
2018-Jul-13 19:30N 46°53' W 091°44'612.2
2018-Jul-13 19:00N 46°55' W 091°36'712.0
2018-Jul-13 18:27N 46°57' W 091°27'2452.1
2018-Jul-13 18:00N 46°36' W 091°12'8413.9 230 / 13473.310.8 -17.7
2018-Jul-13 12:00N 47°06' W 089°18'   230 / 20
Track history (hours):
 
Tides and Currents Weather Stations Pressure Air Temp Water Temp Dewpoint Dewpoint Depression Visibility Wind Speed Wind Dir Waves Ship Positions

CSL Niagara

ex J. W. McGiffin

Last reported at 2018-Jul-23 06:00 UTC. Time now 2018-Jul-23 07:39 UTC.
Position N 43°18' W 078°12'.

Length 225 m; draft 8.1 m.

Type: Cargo ship. MMSI: 316029000.

Wind from 130 at 13 knots

Barometer 303.9 mb
Air temperature -17.7 ° C
Visibility: greater than 27.0 NM

Date/timePositionNaut miles runAvg speedWind from/ knotsBaromVisibWave heightAir tempDewpointWater temp
2018-Jul-23 06:00N 43°18' W 078°12'192 9.2 130 / 13303.927.0 -17.7
2018-Jul-22 09:09N 45°06' W 074°29'1 8.1
2018-Jul-22 09:00N 45°07' W 074°28'5 9.7
2018-Jul-22 08:30N 45°09' W 074°23'510.4
2018-Jul-22 08:00N 45°13' W 074°17'11 7.5
2018-Jul-22 06:34N 45°13' W 074°02'0 8.8
2018-Jul-22 06:30N 45°14' W 074°01'5 7.9
2018-Jul-22 05:53N 45°17' W 073°56'1 3.4
2018-Jul-22 05:30N 45°18' W 073°56'1 1.1
2018-Jul-22 05:00N 45°19' W 073°55'0 0.6
2018-Jul-22 04:30N 45°19' W 073°55'0 0.8
2018-Jul-22 04:00N 45°19' W 073°55'0 0.0
2018-Jul-22 03:30N 45°19' W 073°55'0 0.0
2018-Jul-22 03:00N 45°19' W 073°55'0 0.8
2018-Jul-22 02:30N 45°20' W 073°55'4 8.7
2018-Jul-22 02:00N 45°22' W 073°50'5 9.3
2018-Jul-22 01:30N 45°24' W 073°44'3 5.7
2018-Jul-22 01:00N 45°25' W 073°40'3 5.3
2018-Jul-22 00:30N 45°24' W 073°36'1 2.8
2018-Jul-22 00:01N 45°24' W 073°34'0 0.7
2018-Jul-21 23:30N 45°24' W 073°33'2 4.5
2018-Jul-21 23:00N 45°25' W 073°30'3 5.8
2018-Jul-21 22:29N 45°28' W 073°30'1 3.0
2018-Jul-21 22:00N 45°30' W 073°31'0 0.7
2018-Jul-21 21:30N 45°30' W 073°31'8 1.3
2018-Jul-21 15:01N 45°38' W 073°29'0 7.5
2018-Jul-21 14:58N 45°39' W 073°29'4 8.9
2018-Jul-21 14:28N 45°43' W 073°26'4 9.3
2018-Jul-21 14:00N 45°46' W 073°23'5 9.5
2018-Jul-21 13:30N 45°50' W 073°18'5 9.5
2018-Jul-21 13:00N 45°54' W 073°14'5 9.0
2018-Jul-21 12:30N 45°58' W 073°12'4 8.9
2018-Jul-21 12:00N 46°02' W 073°10'4 8.7
2018-Jul-21 11:30N 46°04' W 073°04'89 9.6
2018-Jul-21 02:12N 46°49' W 071°12'1 3.2
2018-Jul-21 01:45N 46°50' W 071°12'0 0.0
2018-Jul-21 01:21N 46°50' W 071°12'0 0.0
2018-Jul-21 00:45N 46°50' W 071°12'0 0.0
2018-Jul-20 23:54N 46°50' W 071°12'0 0.0
2018-Jul-20 23:21N 46°50' W 071°12'0 0.0
2018-Jul-20 22:24N 46°50' W 071°12'0 0.0
2018-Jul-20 20:36N 46°50' W 071°12'0 0.0
2018-Jul-20 19:24N 46°50' W 071°12'0 0.0
2018-Jul-20 18:18N 46°50' W 071°12'0 0.0
2018-Jul-20 17:42N 46°50' W 071°12'0 0.0
2018-Jul-20 17:21N 46°50' W 071°12'0 0.0
2018-Jul-20 16:12N 46°50' W 071°12'0 0.0
2018-Jul-20 15:57N 46°50' W 071°12'0 0.0
2018-Jul-20 15:30N 46°50' W 071°12'0 0.0
2018-Jul-20 14:45N 46°50' W 071°12'0 0.0
2018-Jul-20 14:18N 46°50' W 071°12'0 0.0
2018-Jul-20 14:00N 46°50' W 071°12'0 0.0
2018-Jul-20 13:29N 46°50' W 071°12'0 0.0
2018-Jul-20 12:57N 46°50' W 071°12'0 0.0
2018-Jul-20 12:30N 46°50' W 071°12'0 0.0
2018-Jul-20 11:59N 46°50' W 071°12'0 0.0
2018-Jul-20 11:30N 46°50' W 071°12'2 2.8
2018-Jul-20 10:51N 46°48' W 071°12'8511.6
2018-Jul-20 03:29N 46°06' W 072°59'612.4
2018-Jul-20 03:00N 46°03' W 073°07'611.0
2018-Jul-20 02:30N 45°59' W 073°11'612.2
2018-Jul-20 02:00N 45°53' W 073°15'612.3
2018-Jul-20 01:30N 45°48' W 073°20'612.7
2018-Jul-20 01:00N 45°43' W 073°26'712.0
2018-Jul-20 00:27N 45°37' W 073°30'7 9.5
2018-Jul-19 23:46N 45°31' W 073°31'1 3.4
2018-Jul-19 23:30N 45°30' W 073°31'0 0.4
2018-Jul-19 23:00N 45°30' W 073°31'0 0.9
2018-Jul-19 22:30N 45°29' W 073°31'2 3.9
2018-Jul-19 22:01N 45°27' W 073°30'3 5.4
2018-Jul-19 21:31N 45°25' W 073°31'2 3.8
2018-Jul-19 21:01N 45°24' W 073°34'0 0.3
2018-Jul-19 20:31N 45°24' W 073°34'1 1.8
2018-Jul-19 20:01N 45°24' W 073°35'2 4.3
2018-Jul-19 19:30N 45°24' W 073°38'3 5.4
2018-Jul-19 19:01N 45°25' W 073°42'4 8.1
2018-Jul-19 18:31N 45°24' W 073°48'611.2
2018-Jul-19 18:00N 45°20' W 073°54'1 2.9
2018-Jul-19 17:31N 45°19' W 073°55'0 0.7
2018-Jul-19 17:01N 45°19' W 073°55'0 1.0
2018-Jul-19 16:31N 45°18' W 073°56'0 0.5
2018-Jul-19 16:00N 45°18' W 073°56'2 4.4
2018-Jul-19 15:30N 45°16' W 073°57'4 7.8
2018-Jul-19 15:00N 45°14' W 074°01'4 5.2
2018-Jul-19 14:16N 45°14' W 074°07'7 7.0
2018-Jul-19 13:12N 45°13' W 074°17'6 7.4
2018-Jul-19 12:22N 45°08' W 074°24'3 8.9
2018-Jul-19 11:59N 45°07' W 074°28'4 8.7
2018-Jul-19 11:31N 45°04' W 074°32'5 9.4
2018-Jul-19 11:00N 45°02' W 074°38'147 8.7
2018-Jul-18 18:00N 43°24' W 077°12'5313.2 180 / 5507.127.0 -17.7
2018-Jul-18 14:00N 43°30' W 078°24'   050 / 121019.0 -5.5
2018-Jul-16 07:31N 45°23' W 083°10'2111.9
2018-Jul-16 05:46N 45°39' W 083°30'1211.8
2018-Jul-16 04:45N 45°48' W 083°42'100 6.6
2018-Jul-15 13:35N 46°57' W 085°26'111.8
2018-Jul-15 13:31N 46°58' W 085°27'711.9
2018-Jul-15 12:58N 47°00' W 085°36'511.9
2018-Jul-15 12:30N 47°03' W 085°43'611.9
2018-Jul-15 11:58N 47°05' W 085°52'20111.4
2018-Jul-14 18:23N 47°14' W 090°47'411.9
2018-Jul-14 18:00N 47°12' W 090°53'611.8
2018-Jul-14 17:30N 47°09' W 091°01'2812.0
2018-Jul-14 15:11N 46°57' W 091°37'212.0
2018-Jul-14 15:00N 46°56' W 091°40'1212.1
2018-Jul-14 14:00N 46°50' W 091°56'612.0
2018-Jul-14 13:30N 46°47' W 092°04'2 4.6
2018-Jul-14 13:00N 46°45' W 092°05'2 2.5
2018-Jul-14 12:19N 46°45' W 092°08'0 0.2
2018-Jul-14 11:52N 46°45' W 092°08'0 0.0
2018-Jul-14 11:22N 46°45' W 092°08'0 0.0
2018-Jul-14 10:52N 46°45' W 092°08'0 0.0
2018-Jul-14 10:22N 46°45' W 092°08'0 0.0
2018-Jul-14 09:52N 46°45' W 092°08'0 0.0
2018-Jul-14 09:22N 46°45' W 092°08'0 0.0
2018-Jul-14 08:55N 46°45' W 092°08'0 0.0
2018-Jul-14 08:25N 46°45' W 092°08'0 0.0
2018-Jul-14 07:55N 46°45' W 092°08'0 0.0
2018-Jul-14 06:55N 46°45' W 092°08'0 0.0
2018-Jul-14 06:28N 46°45' W 092°08'0 0.0
2018-Jul-14 05:58N 46°45' W 092°08'0 0.0
2018-Jul-14 05:30N 46°45' W 092°08'0 0.0
2018-Jul-14 05:00N 46°45' W 092°08'0 0.0
2018-Jul-14 04:31N 46°45' W 092°08'0 0.0
2018-Jul-14 04:00N 46°45' W 092°08'0 0.0
2018-Jul-14 03:30N 46°45' W 092°08'0 0.0
2018-Jul-14 03:00N 46°45' W 092°08'0 0.0
2018-Jul-14 02:30N 46°45' W 092°08'0 0.0
2018-Jul-14 02:00N 46°45' W 092°08'0 0.0
2018-Jul-14 01:30N 46°45' W 092°08'0 0.0
2018-Jul-14 01:00N 46°45' W 092°08'0 0.0
2018-Jul-14 00:29N 46°45' W 092°08'0 0.0
2018-Jul-13 23:58N 46°45' W 092°08'0 0.0
2018-Jul-13 23:31N 46°45' W 092°08'0 0.0
2018-Jul-13 23:00N 46°45' W 092°08'0 0.0
2018-Jul-13 22:30N 46°45' W 092°08'0 0.0
2018-Jul-13 22:00N 46°45' W 092°08'1 1.1
2018-Jul-13 21:30N 46°45' W 092°07'2 3.5
2018-Jul-13 21:01N 46°46' W 092°06'4 7.9
2018-Jul-13 20:31N 46°48' W 092°01'612.2
2018-Jul-13 20:00N 46°50' W 091°53'612.2
2018-Jul-13 19:30N 46°53' W 091°44'612.2
2018-Jul-13 19:00N 46°55' W 091°36'712.0
2018-Jul-13 18:27N 46°57' W 091°27'2452.1
2018-Jul-13 18:00N 46°36' W 091°12'8413.9 230 / 13473.310.8 -17.7
2018-Jul-13 12:00N 47°06' W 089°18'   230 / 20

Dump ship's entire track history